Archiv-/Tagesdaten

--Timestamp---	Temp	Chill	HIndex	Humid	Dewpt	 Wind 	HiWind	WindDir	Rain 	Barom	Solar	 ET  	 UV 
--------------	----	-----	------	-----	-----	------	------	-------	-----	-----	-----	-----	----
20090810 00:00	18.1	18.1	18.1	84	15.4	6	14	112	0.0	1013.7	0	0.025	0.0
20090810 00:05	18.1	18.1	18.1	85	15.5	6	11	135	0.0	1013.7	0	0.000	0.0
20090810 00:10	18.1	18.1	18.1	85	15.5	3	8	135	0.0	1013.7	0	0.000	0.0
20090810 00:15	18.0	18.0	18.0	85	15.4	3	6	135	0.0	1013.7	0	0.000	0.0
20090810 00:20	17.9	17.9	17.9	85	15.4	2	6	135	0.0	1013.7	0	0.000	0.0
20090810 00:25	17.8	17.8	17.8	85	15.3	0	2	135	0.0	1013.7	0	0.000	0.0
20090810 00:30	17.7	17.7	17.7	85	15.2	0	2	135	0.0	1013.7	0	0.000	0.0
20090810 00:35	17.6	17.6	17.6	85	15.0	0	3	135	0.0	1013.8	0	0.000	0.0
20090810 00:40	17.3	17.3	17.3	85	14.8	0	0	-100000	0.0	1014.0	0	0.000	0.0
20090810 00:45	17.2	17.2	17.2	86	14.8	0	2	135	0.0	1013.9	0	0.000	0.0
20090810 00:50	17.1	17.1	17.1	87	14.9	2	3	135	0.0	1013.9	0	0.000	0.0
20090810 00:55	17.1	17.1	17.1	88	15.1	2	6	135	0.0	1013.9	0	0.000	0.0
20090810 01:00	17.1	17.1	17.1	88	15.0	0	2	135	0.0	1013.9	0	0.025	0.0
20090810 01:05	17.0	17.0	17.0	88	15.0	0	2	135	0.0	1013.7	0	0.000	0.0
20090810 01:10	16.9	16.9	16.9	88	14.9	0	2	135	0.0	1013.6	0	0.000	0.0
20090810 01:15	16.9	16.9	16.9	88	14.9	0	2	135	0.0	1013.8	0	0.000	0.0
20090810 01:20	16.8	16.8	16.8	88	14.8	0	2	135	0.0	1013.7	0	0.000	0.0
20090810 01:25	16.8	16.8	16.8	89	15.0	2	3	135	0.0	1013.7	0	0.000	0.0
20090810 01:30	16.7	16.7	16.7	89	14.9	0	5	135	0.0	1013.7	0	0.000	0.0
20090810 01:35	16.7	16.7	16.7	89	14.9	2	5	135	0.0	1013.6	0	0.000	0.0
20090810 01:40	16.7	16.7	16.7	89	14.9	0	0	-100000	0.0	1013.6	0	0.000	0.0
20090810 01:45	16.7	16.7	16.7	89	14.8	2	5	135	0.0	1013.7	0	0.000	0.0
20090810 01:50	16.6	16.6	16.6	89	14.8	0	2	135	0.0	1013.7	0	0.000	0.0
20090810 01:55	16.6	16.6	16.6	89	14.7	0	0	-100000	0.0	1013.6	0	0.000	0.0
20090810 02:00	16.6	16.6	16.6	90	14.9	0	0	-100000	0.0	1013.7	0	0.000	0.0
20090810 02:05	16.6	16.6	16.6	90	14.9	0	2	135	0.0	1013.5	0	0.000	0.0
20090810 02:10	16.3	16.3	16.3	88	14.3	0	2	135	0.0	1013.5	0	0.000	0.0
20090810 02:15	16.1	16.1	16.1	88	14.1	0	0	-100000	0.0	1013.5	0	0.000	0.0
20090810 02:20	16.0	16.0	16.0	89	14.2	0	0	-100000	0.0	1013.6	0	0.000	0.0
20090810 02:25	15.9	15.9	15.9	89	14.1	0	0	-100000	0.0	1013.7	0	0.000	0.0
20090810 02:30	15.9	15.9	15.9	90	14.2	0	0	-100000	0.0	1013.5	0	0.000	0.0
20090810 02:35	15.8	15.8	15.8	90	14.2	0	0	-100000	0.0	1013.6	0	0.000	0.0
20090810 02:40	15.8	15.8	15.8	90	14.2	0	0	-100000	0.0	1013.6	0	0.000	0.0
20090810 02:45	15.8	15.8	15.8	90	14.2	0	0	-100000	0.0	1013.5	0	0.000	0.0
20090810 02:50	15.8	15.8	15.8	90	14.1	0	0	-100000	0.0	1013.6	0	0.000	0.0
20090810 02:55	15.8	15.8	15.8	91	14.3	0	0	-100000	0.0	1013.7	0	0.000	0.0
20090810 03:00	15.8	15.8	15.8	90	14.1	0	0	-100000	0.0	1013.6	0	0.000	0.0
20090810 03:05	15.8	15.8	15.8	90	14.1	0	0	-100000	0.0	1013.7	0	0.000	0.0
20090810 03:10	15.7	15.7	15.7	91	14.3	0	0	-100000	0.0	1013.7	0	0.000	0.0
20090810 03:15	15.7	15.7	15.7	91	14.3	0	0	-100000	0.0	1013.8	0	0.000	0.0
20090810 03:20	15.7	15.7	15.7	91	14.2	0	0	-100000	0.0	1013.8	0	0.000	0.0
20090810 03:25	15.6	15.6	15.6	91	14.1	0	0	-100000	0.0	1013.7	0	0.000	0.0
20090810 03:30	15.6	15.6	15.6	91	14.1	0	0	-100000	0.0	1013.6	0	0.000	0.0
20090810 03:35	15.6	15.6	15.6	91	14.1	0	0	-100000	0.0	1013.6	0	0.000	0.0
20090810 03:40	15.6	15.6	15.6	91	14.1	0	0	-100000	0.0	1013.6	0	0.000	0.0
20090810 03:45	15.5	15.5	15.5	91	14.0	0	0	-100000	0.0	1013.6	0	0.000	0.0
20090810 03:50	15.4	15.4	15.4	91	13.9	0	0	-100000	0.0	1013.6	0	0.000	0.0
20090810 03:55	15.3	15.3	15.3	91	13.9	0	0	-100000	0.0	1013.5	0	0.000	0.0
20090810 04:00	15.3	15.3	15.3	91	13.8	0	0	-100000	0.0	1013.5	0	0.000	0.0
20090810 04:05	15.1	15.1	15.1	91	13.7	0	0	-100000	0.0	1013.6	0	0.000	0.0
20090810 04:10	15.0	15.0	15.0	91	13.5	0	0	-100000	0.0	1013.7	0	0.000	0.0
20090810 04:15	15.0	15.0	15.0	91	13.5	0	0	-100000	0.0	1013.7	0	0.000	0.0
20090810 04:20	15.0	15.0	15.0	91	13.5	0	0	-100000	0.0	1013.6	0	0.000	0.0
20090810 04:25	14.8	14.8	14.8	91	13.4	0	0	-100000	0.0	1013.6	0	0.000	0.0
20090810 04:30	14.8	14.8	14.8	91	13.3	0	0	-100000	0.0	1013.8	0	0.000	0.0
20090810 04:35	14.7	14.7	14.7	91	13.2	0	0	-100000	0.0	1013.8	0	0.000	0.0
20090810 04:40	14.6	14.6	14.6	91	13.2	0	0	-100000	0.0	1013.7	0	0.000	0.0
20090810 04:45	14.5	14.5	14.5	91	13.0	0	0	-100000	0.0	1013.9	0	0.000	0.0
20090810 04:50	14.4	14.4	14.4	91	13.0	0	0	-100000	0.0	1013.9	0	0.000	0.0
20090810 04:55	14.4	14.4	14.4	91	13.0	0	0	-100000	0.0	1013.9	0	0.000	0.0
20090810 05:00	14.4	14.4	14.4	91	12.9	0	0	-100000	0.0	1013.8	0	0.000	0.0
20090810 05:05	14.3	14.3	14.3	91	12.8	0	0	-100000	0.0	1013.7	0	0.000	0.0
20090810 05:10	14.2	14.2	14.2	91	12.8	0	0	-100000	0.0	1013.8	0	0.000	0.0
20090810 05:15	14.2	14.2	14.2	91	12.7	0	0	-100000	0.0	1013.8	0	0.000	0.0
20090810 05:20	14.1	14.1	14.1	91	12.7	0	0	-100000	0.0	1013.8	0	0.000	0.0
20090810 05:25	14.1	14.1	14.1	91	12.6	0	0	-100000	0.0	1013.8	0	0.000	0.0
20090810 05:30	14.0	14.0	14.0	91	12.6	0	0	-100000	0.0	1013.8	0	0.000	0.0
20090810 05:35	13.9	13.9	13.9	91	12.5	0	0	-100000	0.0	1013.8	0	0.000	0.0
20090810 05:40	13.9	13.9	13.9	92	12.7	0	0	-100000	0.0	1013.8	0	0.000	0.0
20090810 05:45	13.9	13.9	13.9	92	12.7	0	0	-100000	0.0	1013.7	0	0.000	0.0
20090810 05:50	13.9	13.9	13.9	92	12.7	0	0	-100000	0.0	1013.5	0	0.000	0.0
20090810 05:55	13.8	13.8	13.8	92	12.6	0	0	-100000	0.0	1013.5	0	0.000	0.0
20090810 06:00	13.7	13.7	13.7	92	12.4	0	0	-100000	0.0	1013.5	0	0.000	0.0
20090810 06:05	13.7	13.7	13.7	91	12.2	0	2	135	0.0	1013.9	1	0.000	0.0
20090810 06:10	13.7	13.7	13.7	92	12.4	3	6	135	0.0	1013.9	6	0.000	0.0
20090810 06:15	13.7	13.7	13.7	92	12.4	2	5	135	0.0	1013.9	8	0.000	0.0
20090810 06:20	13.7	13.7	13.7	92	12.4	0	2	90	0.0	1013.8	11	0.000	0.0
20090810 06:25	13.8	13.8	13.8	92	12.5	0	2	90	0.0	1013.9	13	0.000	0.0
20090810 06:30	13.8	13.8	13.8	93	12.7	0	2	112	0.0	1013.8	17	0.000	0.0
20090810 06:35	13.9	13.9	13.9	93	12.8	0	0	-100000	0.0	1013.8	19	0.000	0.0
20090810 06:40	13.9	13.9	13.9	93	12.8	0	0	-100000	0.0	1013.8	25	0.000	0.0
20090810 06:45	14.1	14.1	14.1	93	12.9	0	2	68	0.0	1013.9	34	0.000	0.0
20090810 06:50	14.2	14.2	14.2	93	13.0	0	2	22	0.0	1014.0	41	0.000	0.0
20090810 06:55	14.2	14.2	14.2	93	13.1	0	0	-100000	0.0	1013.8	48	0.000	0.0
20090810 07:00	14.3	14.3	14.3	93	13.2	0	0	-100000	0.0	1013.9	54	0.025	0.0
20090810 07:05	14.4	14.4	14.4	93	13.3	0	3	90	0.0	1014.2	65	0.000	0.0
20090810 07:10	14.6	14.6	14.6	94	13.7	0	2	225	0.0	1014.1	76	0.000	0.0
20090810 07:15	14.7	14.7	14.7	93	13.6	0	2	225	0.0	1014.2	78	0.000	0.0
20090810 07:20	14.8	14.8	14.8	94	13.9	0	3	180	0.0	1014.0	78	0.000	0.0
20090810 07:25	15.0	15.0	15.0	93	13.9	0	3	180	0.0	1014.0	90	0.000	0.0
20090810 07:30	15.0	15.0	15.0	93	13.9	2	5	90	0.0	1013.9	102	0.000	0.0
20090810 07:35	15.0	15.0	15.0	93	13.9	0	3	225	0.0	1014.0	109	0.000	0.0
20090810 07:40	15.1	15.1	15.1	93	14.0	0	2	225	0.0	1014.2	128	0.000	0.0
20090810 07:45	15.3	15.3	15.3	94	14.3	0	5	225	0.0	1014.3	129	0.000	0.0
20090810 07:50	15.4	15.4	15.4	93	14.3	2	5	225	0.0	1014.3	139	0.000	0.0
20090810 07:55	15.6	15.6	15.6	94	14.6	0	2	225	0.0	1014.3	154	0.000	0.5
20090810 08:00	15.8	15.8	15.8	94	14.8	0	2	225	0.0	1014.3	196	0.051	0.6
20090810 08:05	16.0	16.0	16.0	94	15.0	0	2	225	0.0	1014.5	221	0.000	0.6
20090810 08:10	16.4	16.4	16.4	94	15.4	0	2	225	0.0	1014.5	255	0.000	0.7
20090810 08:15	16.7	16.7	16.7	93	15.5	3	8	248	0.0	1014.4	227	0.000	0.7
20090810 08:20	16.9	16.9	16.9	92	15.6	2	6	248	0.0	1014.4	245	0.000	0.8
20090810 08:25	17.2	17.2	17.2	91	15.7	3	5	248	0.0	1014.5	182	0.000	0.7
20090810 08:30	17.4	17.4	17.4	90	15.7	2	6	248	0.0	1014.4	135	0.000	0.7
20090810 08:35	17.6	17.6	17.6	89	15.7	5	8	270	0.0	1014.4	148	0.000	0.8
20090810 08:40	17.7	17.7	17.7	88	15.7	5	8	270	0.0	1014.4	157	0.000	0.8
20090810 08:45	17.8	17.8	17.8	88	15.8	2	8	270	0.0	1014.3	185	0.000	0.9
20090810 08:50	18.0	18.0	18.0	88	16.0	3	8	270	0.0	1014.4	158	0.000	0.8
20090810 08:55	18.2	18.2	18.2	87	16.0	3	6	270	0.0	1014.4	146	0.000	0.8
20090810 09:00	18.3	18.3	18.3	87	16.1	5	11	270	0.0	1014.4	140	0.102	0.8
20090810 09:05	18.4	18.4	18.4	86	16.0	5	13	270	0.0	1014.4	134	0.000	0.8
20090810 09:10	18.4	18.4	18.4	86	16.1	5	8	292	0.0	1014.4	127	0.000	0.8
20090810 09:15	18.5	18.5	18.5	86	16.1	3	6	270	0.0	1014.4	123	0.000	0.9
20090810 09:20	18.6	18.6	18.6	86	16.2	2	6	270	0.0	1014.4	131	0.000	1.0
20090810 09:25	18.7	18.7	18.7	86	16.3	3	6	292	0.0	1014.3	138	0.000	1.1
20090810 09:30	18.7	18.7	18.7	86	16.3	5	8	292	0.0	1014.3	148	0.000	1.2
20090810 09:35	18.8	18.8	18.8	86	16.4	3	8	292	0.0	1014.4	161	0.000	1.3
20090810 09:40	18.9	18.9	18.9	86	16.5	2	5	292	0.0	1014.5	174	0.000	1.4
20090810 09:45	19.1	19.1	19.1	86	16.7	3	8	315	0.0	1014.5	176	0.000	1.4
20090810 09:50	19.2	19.2	19.2	84	16.4	6	10	292	0.0	1014.5	196	0.000	1.6
20090810 09:55	19.2	19.2	19.2	83	16.3	10	18	248	0.0	1014.3	207	0.000	1.7
20090810 10:00	19.3	19.3	19.3	84	16.6	6	18	292	0.0	1014.4	214	0.102	1.8
20090810 10:05	19.4	19.4	19.4	82	16.3	10	18	270	0.0	1014.5	207	0.000	1.8
20090810 10:10	19.5	19.5	19.5	81	16.1	8	18	270	0.0	1014.6	203	0.000	1.7
20090810 10:15	19.6	19.6	19.6	81	16.3	8	16	270	0.0	1014.6	192	0.000	1.6
20090810 10:20	19.7	19.7	19.7	81	16.4	6	11	270	0.0	1014.7	181	0.000	1.5
20090810 10:25	19.7	19.7	19.7	80	16.2	10	16	292	0.0	1014.6	170	0.000	1.4
20090810 10:30	19.7	19.7	19.7	81	16.4	8	14	292	0.0	1014.6	171	0.000	1.4
20090810 10:35	19.7	19.7	19.7	81	16.4	6	14	270	0.0	1014.7	158	0.000	1.3
20090810 10:40	19.8	19.8	19.8	81	16.4	6	14	270	0.0	1014.7	120	0.000	1.0
20090810 10:45	19.8	19.8	19.8	81	16.4	6	11	270	0.0	1014.8	84	0.000	0.7
20090810 10:50	19.8	19.8	19.8	82	16.6	6	16	270	0.0	1014.8	91	0.000	0.8
20090810 10:55	19.7	19.7	19.7	82	16.6	10	21	248	0.0	1014.8	106	0.000	0.9
20090810 11:00	19.6	19.6	19.6	83	16.6	10	18	248	0.0	1015.0	132	0.102	1.1
20090810 11:05	19.5	19.5	19.5	84	16.7	8	14	248	0.0	1015.1	139	0.000	1.2
20090810 11:10	19.4	19.4	19.4	85	16.9	10	16	225	0.0	1015.1	105	0.000	0.9
20090810 11:15	19.3	19.3	19.3	85	16.7	8	16	248	0.0	1015.1	89	0.000	0.8
20090810 11:20	19.2	19.2	19.2	85	16.6	10	18	248	0.0	1015.1	183	0.000	1.7
20090810 11:25	19.1	19.1	19.1	85	16.5	10	19	248	0.0	1015.2	204	0.000	1.9
20090810 11:30	19.1	19.1	19.1	87	16.9	8	18	248	0.0	1015.2	230	0.000	2.2
20090810 11:35	19.2	19.2	19.2	87	16.9	10	18	248	0.0	1015.1	231	0.000	2.2
20090810 11:40	19.2	19.2	19.2	87	16.9	8	18	248	0.0	1015.1	203	0.000	2.0
20090810 11:45	19.2	19.2	19.2	87	16.9	5	13	248	0.0	1015.1	229	0.000	2.3
20090810 11:50	19.2	19.2	19.2	87	17.0	5	11	270	0.0	1015.0	232	0.000	2.3
20090810 11:55	19.3	19.3	19.3	87	17.1	3	8	270	0.0	1015.1	222	0.000	2.3
20090810 12:00	19.3	19.3	19.3	86	16.9	8	14	248	0.0	1015.0	218	0.127	2.2
20090810 12:05	19.2	19.2	19.2	87	17.0	8	14	270	0.0	1015.1	212	0.000	2.2
20090810 12:10	19.2	19.2	19.2	87	16.9	8	16	270	0.0	1015.0	218	0.000	2.3
20090810 12:15	19.2	19.2	19.2	88	17.2	8	16	270	0.0	1015.0	248	0.000	2.6
20090810 12:20	19.3	19.3	19.3	87	17.1	10	19	270	0.0	1015.0	243	0.000	2.6
20090810 12:25	19.3	19.3	19.3	87	17.1	10	18	270	0.0	1015.0	215	0.000	2.4
20090810 12:30	19.3	19.3	19.3	87	17.1	8	14	270	0.0	1015.1	199	0.000	2.2
20090810 12:35	19.3	19.3	19.3	87	17.1	5	8	270	0.0	1015.2	198	0.000	2.1
20090810 12:40	19.4	19.4	19.4	88	17.3	6	13	248	0.2	1015.2	212	0.000	2.3
20090810 12:45	19.4	19.4	19.4	88	17.3	6	14	248	0.0	1015.2	223	0.000	2.5
20090810 12:50	19.4	19.4	19.4	88	17.4	6	16	225	0.0	1015.1	231	0.000	2.6
20090810 12:55	19.4	19.4	19.4	87	17.2	11	19	248	0.0	1015.2	217	0.000	2.5
20090810 13:00	19.4	19.4	19.4	88	17.3	6	14	270	0.0	1015.1	241	0.127	2.7
20090810 13:05	19.5	19.5	19.5	88	17.5	6	16	248	0.0	1015.2	279	0.000	3.1
20090810 13:10	19.7	19.7	19.7	88	17.6	6	14	248	0.0	1015.1	313	0.000	3.5
20090810 13:15	19.8	19.8	19.8	87	17.5	8	16	225	0.0	1015.0	317	0.000	3.6
20090810 13:20	19.8	19.8	19.8	87	17.6	6	14	225	0.0	1014.9	287	0.000	3.2
20090810 13:25	20.0	20.0	20.0	87	17.8	8	18	248	0.0	1014.9	258	0.000	2.8
20090810 13:30	20.1	20.1	20.1	87	17.8	6	18	225	0.0	1014.8	325	0.000	3.5
20090810 13:35	20.2	20.2	20.2	85	17.6	8	16	225	0.0	1014.8	406	0.000	4.2
20090810 13:40	20.4	20.4	20.4	84	17.6	8	19	202	0.0	1014.7	462	0.000	4.6
20090810 13:45	20.7	20.7	20.7	83	17.7	10	18	225	0.0	1014.7	522	0.000	5.1
20090810 13:50	21.1	21.1	21.1	82	17.9	8	16	225	0.0	1014.6	721	0.000	6.4
20090810 13:55	21.4	21.4	21.4	81	18.0	10	19	225	0.0	1014.6	584	0.000	5.8
20090810 14:00	21.8	21.8	21.8	79	18.0	10	26	225	0.0	1014.5	615	0.254	5.9
20090810 14:05	22.0	22.0	22.0	78	18.0	6	26	248	0.0	1014.5	602	0.000	6.3
20090810 14:10	22.2	22.2	22.2	76	17.7	8	16	248	0.0	1014.5	510	0.000	5.2
20090810 14:15	22.2	22.2	22.2	77	18.0	6	16	225	0.0	1014.5	452	0.000	4.9
20090810 14:20	22.2	22.2	22.2	74	17.4	8	18	248	0.0	1014.6	289	0.000	3.0
20090810 14:25	21.8	21.8	21.8	73	16.8	8	18	292	0.0	1014.8	69	0.000	0.4
20090810 14:30	21.0	21.0	21.0	72	15.8	14	23	270	0.0	1015.1	26	0.000	0.0
20090810 14:35	20.2	20.2	20.2	78	16.2	13	23	292	0.6	1015.2	24	0.000	0.0
20090810 14:40	19.2	19.2	19.2	81	15.8	3	11	315	3.2	1015.3	28	0.000	0.0
20090810 14:45	18.2	18.2	18.2	84	15.5	3	8	22	0.8	1015.4	38	0.000	0.0
20090810 14:50	17.8	17.8	17.8	86	15.4	2	6	45	0.0	1015.4	51	0.000	0.1
20090810 14:55	17.4	17.4	17.4	87	15.3	2	5	45	0.2	1015.5	66	0.000	0.7
20090810 15:00	17.3	17.3	17.3	88	15.3	0	3	45	0.0	1015.6	79	0.127	0.8
20090810 15:05	17.2	17.2	17.2	89	15.4	0	3	45	0.4	1015.6	96	0.000	0.9
20090810 15:10	17.3	17.3	17.3	90	15.6	3	5	45	0.2	1015.5	134	0.000	1.2
20090810 15:15	17.3	17.3	17.3	89	15.5	5	6	45	0.0	1015.4	218	0.000	1.8
20090810 15:20	17.5	17.5	17.5	90	15.8	2	5	45	0.0	1015.1	297	0.000	2.4
20090810 15:25	17.9	17.9	17.9	92	16.6	2	6	68	0.0	1015.0	360	0.000	2.9
20090810 15:30	18.4	18.4	18.4	92	17.1	2	5	68	0.0	1015.0	394	0.000	3.4
20090810 15:35	18.7	18.7	18.7	90	17.0	2	6	68	0.0	1014.8	396	0.000	3.5
20090810 15:40	19.1	19.1	19.1	90	17.4	2	6	112	0.0	1014.8	461	0.000	3.8
20090810 15:45	19.6	19.6	19.6	89	17.7	3	8	135	0.0	1014.7	510	0.000	4.2
20090810 15:50	20.0	20.0	20.0	86	17.6	3	8	135	0.0	1014.5	444	0.000	3.7
20090810 15:55	20.2	20.2	20.2	84	17.4	3	10	135	0.0	1014.5	437	0.000	3.5
20090810 16:00	20.4	20.4	20.4	84	17.6	3	6	135	0.0	1014.4	373	0.203	3.1
20090810 16:05	20.4	20.4	20.4	84	17.6	3	8	135	0.0	1014.4	252	0.000	2.5
20090810 16:10	20.5	20.5	20.5	82	17.3	5	10	158	0.0	1014.4	219	0.000	2.2
20090810 16:15	20.5	20.5	20.5	84	17.7	3	8	158	0.0	1014.3	209	0.000	2.0
20090810 16:20	20.4	20.4	20.4	84	17.6	5	10	158	0.0	1014.3	204	0.000	1.8
20090810 16:25	20.2	20.2	20.2	84	17.4	5	10	135	0.0	1014.3	243	0.000	1.8
20090810 16:30	20.1	20.1	20.1	84	17.3	5	10	135	0.0	1014.3	304	0.000	2.0
20090810 16:35	20.2	20.2	20.2	85	17.6	3	8	135	0.0	1014.2	311	0.000	2.1
20090810 16:40	20.3	20.3	20.3	86	17.9	3	8	135	0.0	1014.1	262	0.000	1.9
20090810 16:45	20.3	20.3	20.3	83	17.3	5	11	135	0.0	1014.1	216	0.000	1.6
20090810 16:50	20.3	20.3	20.3	84	17.5	5	10	135	0.0	1014.1	175	0.000	1.3
20090810 16:55	20.3	20.3	20.3	85	17.7	2	6	135	0.0	1014.1	143	0.000	1.1
20090810 17:00	20.3	20.3	20.3	84	17.5	5	10	135	0.0	1014.0	109	0.127	0.9
20090810 17:05	20.3	20.3	20.3	83	17.3	5	11	135	0.0	1014.0	86	0.000	0.8
20090810 17:10	20.2	20.2	20.2	84	17.4	3	8	135	0.0	1014.2	59	0.000	0.3
20090810 17:15	20.1	20.1	20.1	84	17.3	8	19	135	0.2	1014.4	110	0.000	0.4
20090810 17:20	19.9	19.9	19.9	86	17.5	10	21	270	0.2	1014.3	414	0.000	1.6
20090810 17:25	20.0	20.0	20.0	86	17.6	8	16	292	0.0	1014.3	395	0.000	1.8
20090810 17:30	20.0	20.0	20.0	86	17.6	5	14	315	0.0	1014.4	214	0.000	1.4
20090810 17:35	19.9	19.9	19.9	87	17.7	0	6	22	0.0	1014.5	186	0.000	1.3
20090810 17:40	19.9	19.9	19.9	86	17.5	2	6	338	0.0	1014.4	197	0.000	1.2
20090810 17:45	19.9	19.9	19.9	85	17.3	0	5	338	0.0	1014.4	187	0.000	1.1
20090810 17:50	19.9	19.9	19.9	84	17.2	0	2	338	0.0	1014.4	205	0.000	1.0
20090810 17:55	19.9	19.9	19.9	84	17.2	0	2	338	0.0	1014.4	218	0.000	1.0
20090810 18:00	20.1	20.1	20.1	83	17.1	0	2	338	0.0	1014.3	279	0.127	1.1
20090810 18:05	20.3	20.3	20.3	82	17.2	0	2	338	0.0	1014.2	435	0.000	1.1
20090810 18:10	20.7	20.7	20.7	81	17.3	0	3	338	0.0	1014.2	377	0.000	1.1
20090810 18:15	20.9	20.9	20.9	81	17.5	0	3	338	0.0	1014.0	363	0.000	1.0
20090810 18:20	21.3	21.3	21.3	74	16.5	3	10	338	0.0	1014.0	338	0.000	0.9
20090810 18:25	21.6	21.6	21.6	75	17.0	5	10	248	0.0	1014.0	289	0.000	0.9
20090810 18:30	21.6	21.6	21.6	73	16.5	2	6	248	0.0	1013.9	146	0.000	0.7
20090810 18:35	21.5	21.5	21.5	74	16.7	2	6	248	0.0	1013.8	261	0.000	0.7
20090810 18:40	21.7	21.7	21.7	75	17.1	2	6	248	0.0	1013.8	255	0.000	0.7
20090810 18:45	21.8	21.8	21.8	76	17.4	2	6	248	0.0	1013.8	239	0.000	0.6
20090810 18:50	22.1	22.1	22.1	72	16.8	0	3	248	0.0	1013.8	213	0.000	0.6
20090810 18:55	22.1	22.1	22.1	73	17.0	3	6	248	0.0	1013.6	174	0.000	0.5
20090810 19:00	21.9	21.9	21.9	71	16.4	3	5	248	0.0	1013.6	97	0.152	0.0
20090810 19:05	21.7	21.7	21.7	73	16.6	3	5	248	0.0	1013.7	59	0.000	0.0
20090810 19:10	21.3	21.3	21.3	74	16.5	2	6	248	0.0	1013.8	35	0.000	0.0
20090810 19:15	21.0	21.0	21.0	76	16.6	2	5	248	0.0	1013.7	25	0.000	0.0
20090810 19:20	20.7	20.7	20.7	77	16.5	0	3	248	0.0	1013.8	23	0.000	0.0
20090810 19:25	20.6	20.6	20.6	79	16.8	0	0	-100000	0.0	1013.8	19	0.000	0.0
20090810 19:30	20.4	20.4	20.4	81	17.1	0	2	248	0.0	1013.9	16	0.000	0.0
20090810 19:35	20.3	20.3	20.3	82	17.1	0	3	270	0.0	1014.0	12	0.000	0.0
20090810 19:40	20.1	20.1	20.1	83	17.1	0	0	-100000	0.0	1014.0	10	0.000	0.0
20090810 19:45	19.9	19.9	19.9	83	17.0	0	2	338	0.0	1013.9	6	0.000	0.0
20090810 19:50	19.8	19.8	19.8	83	16.8	0	0	-100000	0.0	1013.9	2	0.000	0.0
20090810 19:55	19.7	19.7	19.7	85	17.1	0	0	-100000	0.0	1014.2	0	0.000	0.0
20090810 20:00	19.6	19.6	19.6	86	17.1	0	0	-100000	0.2	1014.2	0	0.025	0.0
20090810 20:05	19.5	19.5	19.5	86	17.1	0	0	-100000	0.2	1013.8	0	0.000	0.0
20090810 20:10	19.4	19.4	19.4	87	17.2	0	0	-100000	0.2	1013.8	0	0.000	0.0
20090810 20:15	19.3	19.3	19.3	88	17.2	0	2	45	0.0	1013.8	0	0.000	0.0
20090810 20:20	19.1	19.1	19.1	88	17.1	0	3	45	0.0	1013.8	0	0.000	0.0
20090810 20:25	18.9	18.9	18.9	89	17.1	2	8	45	0.0	1014.0	0	0.000	0.0
20090810 20:30	18.8	18.8	18.8	89	17.0	3	8	270	0.0	1014.1	0	0.000	0.0
20090810 20:35	18.7	18.7	18.7	89	16.9	6	10	270	0.0	1014.1	0	0.000	0.0
20090810 20:40	18.6	18.6	18.6	89	16.7	6	10	270	0.2	1014.2	0	0.000	0.0
20090810 20:45	18.4	18.4	18.4	89	16.5	6	11	248	0.0	1014.2	0	0.000	0.0
20090810 20:50	18.2	18.2	18.2	89	16.4	6	10	270	0.2	1014.3	0	0.000	0.0
20090810 20:55	18.1	18.1	18.1	89	16.2	5	10	270	0.0	1014.3	0	0.000	0.0
20090810 21:00	17.9	17.9	17.9	88	15.9	3	8	270	0.0	1014.3	0	0.000	0.0
20090810 21:05	17.7	17.7	17.7	87	15.5	5	8	270	0.2	1014.4	0	0.000	0.0
20090810 21:10	17.6	17.6	17.6	88	15.5	5	6	270	0.0	1014.4	0	0.000	0.0
20090810 21:15	17.4	17.4	17.4	87	15.2	5	8	270	0.0	1014.5	0	0.000	0.0
20090810 21:20	17.3	17.3	17.3	87	15.1	3	6	270	0.0	1014.6	0	0.000	0.0
20090810 21:25	17.2	17.2	17.2	88	15.2	6	10	248	0.0	1014.7	0	0.000	0.0
20090810 21:30	17.1	17.1	17.1	88	15.0	6	11	248	0.0	1014.7	0	0.000	0.0
20090810 21:35	17.0	17.0	17.0	88	15.0	5	10	248	0.0	1014.6	0	0.000	0.0
20090810 21:40	16.9	16.9	16.9	88	14.9	5	10	248	0.0	1014.7	0	0.000	0.0
20090810 21:45	16.8	16.8	16.8	89	15.0	3	8	248	0.0	1014.8	0	0.000	0.0
20090810 21:50	16.8	16.8	16.8	88	14.8	6	10	270	0.0	1014.8	0	0.000	0.0
20090810 21:55	16.7	16.7	16.7	88	14.7	5	10	248	0.0	1014.8	0	0.000	0.0
20090810 22:00	16.7	16.7	16.7	87	14.5	6	14	248	0.0	1015.0	0	0.025	0.0
20090810 22:05	16.6	16.6	16.6	87	14.4	10	16	248	0.0	1015.0	0	0.000	0.0
20090810 22:10	16.6	16.6	16.6	87	14.4	8	16	248	0.0	1015.1	0	0.000	0.0
20090810 22:15	16.6	16.6	16.6	87	14.4	10	18	248	0.0	1015.1	0	0.000	0.0
20090810 22:20	16.7	16.7	16.7	88	14.7	8	16	248	0.0	1015.1	0	0.000	0.0
20090810 22:25	16.7	16.7	16.7	88	14.7	5	10	248	0.0	1015.1	0	0.000	0.0
20090810 22:30	16.7	16.7	16.7	88	14.7	5	8	248	0.0	1015.2	0	0.000	0.0
20090810 22:35	16.7	16.7	16.7	89	14.9	3	10	248	0.0	1015.2	0	0.000	0.0
20090810 22:40	16.7	16.7	16.7	90	15.1	5	10	248	0.0	1015.3	0	0.000	0.0
20090810 22:45	16.8	16.8	16.8	90	15.1	5	10	225	0.0	1015.3	0	0.000	0.0
20090810 22:50	16.8	16.8	16.8	91	15.4	6	11	248	0.0	1015.2	0	0.000	0.0
20090810 22:55	16.9	16.9	16.9	91	15.4	5	11	248	0.0	1015.2	0	0.000	0.0
20090810 23:00	16.9	16.9	16.9	91	15.5	8	14	225	0.0	1015.3	0	0.025	0.0
20090810 23:05	16.9	16.9	16.9	91	15.5	8	13	248	0.0	1015.1	0	0.000	0.0
20090810 23:10	16.9	16.9	16.9	90	15.3	8	16	270	0.0	1015.1	0	0.000	0.0
20090810 23:15	16.9	16.9	16.9	91	15.5	6	11	248	0.0	1015.1	0	0.000	0.0
20090810 23:20	17.0	17.0	17.0	91	15.5	6	16	248	0.0	1015.1	0	0.000	0.0
20090810 23:25	17.0	17.0	17.0	91	15.5	6	11	270	0.0	1015.2	0	0.000	0.0
20090810 23:30	17.0	17.0	17.0	91	15.5	8	14	248	0.0	1015.2	0	0.000	0.0
20090810 23:35	17.0	17.0	17.0	91	15.5	8	14	225	0.0	1015.2	0	0.000	0.0
20090810 23:40	17.0	17.0	17.0	91	15.5	10	16	270	0.0	1015.2	0	0.000	0.0
20090810 23:45	16.9	16.9	16.9	91	15.5	10	16	248	0.0	1015.2	0	0.000	0.0
20090810 23:50	16.9	16.9	16.9	90	15.3	10	18	248	0.0	1015.3	0	0.000	0.0
20090810 23:55	17.0	17.0	17.0	91	15.5	8	16	270	0.0	1015.3	0	0.000	0.0



Please note the license to use and transfer of this data:
http://creativecommons.org/licenses/by-nc-sa/3.0/deed.en

Bitte beachten sie die Lizenz zur Verwertung und Weitergabe der Daten:
http://creativecommons.org/licenses/by-nc-sa/3.0/deed.de

zurück zur Übersicht der Archivdaten (Monats und Tagesdaten)

Cookies helfen bei der Bereitstellung von Inhalten. Durch die Nutzung dieser Seiten erklärst du dich damit einverstanden, dass Cookies auf deinem Rechner gespeichert werden. Weitere Information